createdAt,value
2023-01-17T00:00:22.309Z,81
2023-01-17T00:01:23.714Z,81
2023-01-17T00:02:40.280Z,82
2023-01-17T00:03:41.811Z,82
2023-01-17T00:04:43.263Z,82
2023-01-17T00:06:51.783Z,82
2023-01-17T00:07:54.276Z,82
2023-01-17T00:08:55.771Z,82
2023-01-17T00:09:57.183Z,83
2023-01-17T00:10:58.590Z,83
2023-01-17T00:11:59.971Z,83
2023-01-17T00:13:30.431Z,83
2023-01-17T00:15:10.281Z,83
2023-01-17T00:16:11.733Z,83
2023-01-17T00:17:13.160Z,83
2023-01-17T00:18:14.579Z,83
2023-01-17T00:19:17.002Z,83
2023-01-17T00:20:20.131Z,83
2023-01-17T00:21:21.629Z,83
2023-01-17T00:22:23.561Z,83
2023-01-17T00:23:25.006Z,83
2023-01-17T00:24:26.420Z,83
2023-01-17T00:25:27.895Z,83
2023-01-17T00:26:29.332Z,83
2023-01-17T00:27:30.751Z,83
2023-01-17T00:28:33.044Z,83
2023-01-17T00:29:34.490Z,83
2023-01-17T00:30:37.121Z,83
2023-01-17T00:31:38.588Z,83
2023-01-17T00:32:40.290Z,83
2023-01-17T00:33:42.672Z,83
2023-01-17T00:34:45.243Z,83
2023-01-17T00:35:46.734Z,83
2023-01-17T00:36:49.220Z,83
2023-01-17T00:37:51.670Z,82
2023-01-17T00:38:53.176Z,82
2023-01-17T00:39:55.651Z,82
2023-01-17T00:40:57.140Z,82
2023-01-17T00:41:58.569Z,82
2023-01-17T00:43:00.001Z,82
2023-01-17T00:44:01.430Z,82
2023-01-17T00:45:03.821Z,82
2023-01-17T00:46:05.284Z,83
2023-01-17T00:47:07.882Z,83
2023-01-17T00:48:09.563Z,83
2023-01-17T00:49:12.373Z,83
2023-01-17T00:50:13.775Z,83
2023-01-17T00:51:15.192Z,83
2023-01-17T00:52:17.587Z,83
2023-01-17T00:53:30.280Z,83
2023-01-17T00:54:31.720Z,83
2023-01-17T00:55:33.142Z,83
2023-01-17T00:56:35.831Z,83
2023-01-17T00:57:38.192Z,83
2023-01-17T00:58:40.635Z,83
2023-01-17T00:59:42.057Z,83
2023-01-17T01:00:43.537Z,82
2023-01-17T01:01:45.194Z,82
2023-01-17T01:02:46.805Z,82
2023-01-17T01:03:49.128Z,82
2023-01-17T01:04:51.601Z,82
2023-01-17T01:05:53.032Z,82
2023-01-17T01:06:54.541Z,81
2023-01-17T01:07:55.962Z,81
2023-01-17T01:08:57.395Z,81
2023-01-17T01:09:59.056Z,81
2023-01-17T01:11:01.665Z,81
2023-01-17T01:12:03.070Z,81
2023-01-17T01:13:04.483Z,81
2023-01-17T01:14:05.903Z,81
2023-01-17T01:15:07.351Z,81
2023-01-17T01:16:08.791Z,81
2023-01-17T01:17:10.213Z,81
2023-01-17T01:18:11.630Z,81
2023-01-17T01:19:14.071Z,81
2023-01-17T01:20:16.403Z,81
2023-01-17T01:21:19.282Z,81
2023-01-17T01:22:21.704Z,81
2023-01-17T01:23:23.161Z,81
2023-01-17T01:24:25.614Z,81
2023-01-17T01:25:27.035Z,82
2023-01-17T01:26:28.436Z,82
2023-01-17T01:27:29.744Z,81
2023-01-17T01:28:31.096Z,81
2023-01-17T01:29:33.472Z,81
2023-01-17T01:30:34.835Z,81
2023-01-17T01:31:36.365Z,81
2023-01-17T01:32:37.805Z,81
2023-01-17T01:33:39.956Z,81
2023-01-17T01:34:41.373Z,81
2023-01-17T01:35:43.918Z,81
2023-01-17T01:36:45.338Z,81
2023-01-17T01:37:46.714Z,81
2023-01-17T01:38:48.191Z,80
2023-01-17T01:39:49.583Z,81
2023-01-17T01:40:51.032Z,80
2023-01-17T01:41:53.386Z,81
2023-01-17T01:42:55.801Z,81
2023-01-17T01:43:57.160Z,81
2023-01-17T01:44:58.555Z,81
2023-01-17T01:46:00.873Z,81
2023-01-17T01:47:41.199Z,81
2023-01-17T01:48:42.572Z,81
2023-01-17T01:49:44.085Z,81
2023-01-17T01:50:45.557Z,81
2023-01-17T01:51:48.174Z,81
2023-01-17T01:52:50.533Z,81
2023-01-17T01:53:52.981Z,81
2023-01-17T01:54:55.127Z,81
2023-01-17T01:55:56.526Z,81
2023-01-17T01:56:57.962Z,81
2023-01-17T01:57:59.386Z,81
2023-01-17T01:59:00.801Z,81
2023-01-17T02:00:02.292Z,81
2023-01-17T02:01:03.835Z,81
2023-01-17T02:02:05.310Z,81
2023-01-17T02:03:06.783Z,81
2023-01-17T02:04:09.285Z,81
2023-01-17T02:05:10.730Z,81
2023-01-17T02:06:12.171Z,81
2023-01-17T02:07:13.585Z,81
2023-01-17T02:08:16.180Z,81
2023-01-17T02:09:17.624Z,81
2023-01-17T02:10:20.422Z,81
2023-01-17T02:11:21.864Z,81
2023-01-17T02:12:23.331Z,81
2023-01-17T02:13:25.668Z,80
2023-01-17T02:14:27.581Z,81
2023-01-17T02:15:28.951Z,81
2023-01-17T02:16:30.438Z,81
2023-01-17T02:17:32.881Z,81
2023-01-17T02:18:34.351Z,81
2023-01-17T02:19:35.777Z,81
2023-01-17T02:21:00.293Z,81
2023-01-17T02:22:01.712Z,81
2023-01-17T02:23:03.205Z,82
2023-01-17T02:24:05.612Z,82
2023-01-17T02:25:10.613Z,81
2023-01-17T02:26:12.040Z,81
2023-01-17T02:27:40.331Z,81
2023-01-17T02:28:41.839Z,81
2023-01-17T02:29:43.270Z,81
2023-01-17T02:30:44.700Z,81
2023-01-17T02:31:47.190Z,81
2023-01-17T02:32:48.672Z,81
2023-01-17T02:34:21.281Z,81
2023-01-17T02:35:22.711Z,81
2023-01-17T02:36:25.081Z,82
2023-01-17T02:37:26.461Z,81
2023-01-17T02:38:27.836Z,81
2023-01-17T02:39:29.254Z,82
2023-01-17T02:40:30.795Z,82
2023-01-17T02:41:32.211Z,82
2023-01-17T02:42:33.594Z,81
2023-01-17T02:43:35.056Z,81
2023-01-17T02:44:36.501Z,81
2023-01-17T02:45:37.970Z,81
2023-01-17T02:46:39.411Z,81
2023-01-17T02:47:40.831Z,81
2023-01-17T02:48:42.310Z,81
2023-01-17T02:49:43.743Z,81
2023-01-17T02:50:45.124Z,81
2023-01-17T02:51:46.500Z,81
2023-01-17T02:52:48.891Z,81
2023-01-17T02:53:50.415Z,81
2023-01-17T02:55:10.423Z,81
2023-01-17T02:56:11.885Z,81
2023-01-17T02:57:13.283Z,81
2023-01-17T02:58:15.861Z,81
2023-01-17T02:59:17.292Z,81
2023-01-17T03:00:18.700Z,81
2023-01-17T03:01:20.242Z,81
2023-01-17T03:02:22.766Z,81
2023-01-17T03:03:25.225Z,81
2023-01-17T03:04:27.836Z,81
2023-01-17T03:05:30.185Z,81
2023-01-17T03:06:31.639Z,81
2023-01-17T03:07:34.004Z,81
2023-01-17T03:08:35.424Z,81
2023-01-17T03:09:38.052Z,82
2023-01-17T03:10:39.527Z,82
2023-01-17T03:11:40.935Z,82
2023-01-17T03:12:43.433Z,82
2023-01-17T03:13:45.813Z,82
2023-01-17T03:15:10.655Z,82
2023-01-17T03:16:12.799Z,82
2023-01-17T03:17:15.381Z,82
2023-01-17T03:18:16.803Z,82
2023-01-17T03:19:18.245Z,82
2023-01-17T03:20:22.523Z,82
2023-01-17T03:21:24.037Z,82
2023-01-17T03:22:25.528Z,82
2023-01-17T03:23:27.950Z,82
2023-01-17T03:24:29.403Z,82
2023-01-17T03:25:31.765Z,82
2023-01-17T03:26:34.224Z,82
2023-01-17T03:27:35.601Z,82
2023-01-17T03:28:36.980Z,82
2023-01-17T03:29:38.381Z,82
2023-01-17T03:30:39.829Z,82
2023-01-17T03:31:50.160Z,82
2023-01-17T03:32:52.740Z,82
2023-01-17T03:33:55.195Z,82
2023-01-17T03:34:56.612Z,82
2023-01-17T03:35:58.039Z,82
2023-01-17T03:36:59.475Z,82
2023-01-17T03:38:00.953Z,82
2023-01-17T03:39:02.420Z,82
2023-01-17T03:40:03.839Z,82
2023-01-17T03:41:05.263Z,82
2023-01-17T03:42:06.649Z,82
2023-01-17T03:43:08.081Z,82
2023-01-17T03:44:09.559Z,83
2023-01-17T03:45:10.982Z,83
2023-01-17T03:46:12.464Z,82
2023-01-17T03:47:13.934Z,82
2023-01-17T03:48:30.156Z,82
2023-01-17T03:49:31.651Z,82
2023-01-17T03:50:34.208Z,82
2023-01-17T03:51:35.634Z,82
2023-01-17T03:52:37.044Z,82
2023-01-17T03:53:38.417Z,82
2023-01-17T03:54:40.753Z,82
2023-01-17T03:55:42.172Z,82
2023-01-17T03:56:43.591Z,82
2023-01-17T03:57:45.022Z,82
2023-01-17T03:59:20.450Z,82
2023-01-17T04:00:21.832Z,82
2023-01-17T04:01:23.886Z,82
2023-01-17T04:02:25.366Z,82
2023-01-17T04:03:30.863Z,82
2023-01-17T04:04:32.289Z,82
2023-01-17T04:05:33.709Z,83
2023-01-17T04:06:51.110Z,83
2023-01-17T04:07:52.551Z,83
2023-01-17T04:08:54.100Z,83
2023-01-17T04:09:55.492Z,83
2023-01-17T04:10:56.917Z,83
2023-01-17T04:11:58.331Z,83
2023-01-17T04:12:59.752Z,83
2023-01-17T04:14:01.167Z,83
2023-01-17T04:15:02.594Z,83
2023-01-17T04:16:04.022Z,83
2023-01-17T04:17:05.909Z,83
2023-01-17T04:18:08.129Z,83
2023-01-17T04:19:09.600Z,83
2023-01-17T04:20:11.037Z,83
2023-01-17T04:21:12.470Z,83
2023-01-17T04:22:13.899Z,83
2023-01-17T04:23:16.211Z,83
2023-01-17T04:24:18.077Z,82
2023-01-17T04:25:19.571Z,82
2023-01-17T04:26:20.953Z,82
2023-01-17T04:27:22.382Z,82
2023-01-17T04:28:24.740Z,82
2023-01-17T04:29:26.959Z,82
2023-01-17T04:30:28.326Z,82
2023-01-17T04:31:30.852Z,82
2023-01-17T04:32:32.308Z,82
2023-01-17T04:33:34.584Z,82
2023-01-17T04:34:36.053Z,82
2023-01-17T04:35:37.511Z,82
2023-01-17T04:36:38.881Z,82
2023-01-17T04:37:40.241Z,82
2023-01-17T04:38:41.826Z,82
2023-01-17T04:39:44.139Z,82
2023-01-17T04:40:45.620Z,82
2023-01-17T04:41:48.234Z,82
2023-01-17T04:42:50.633Z,82
2023-01-17T04:43:53.009Z,82
2023-01-17T04:44:55.421Z,82
2023-01-17T04:45:58.063Z,82
2023-01-17T04:47:00.512Z,82
2023-01-17T04:48:02.890Z,83
2023-01-17T04:49:05.313Z,83
2023-01-17T04:50:06.750Z,83
2023-01-17T04:51:08.137Z,83
2023-01-17T04:52:09.551Z,83
2023-01-17T04:53:10.978Z,83
2023-01-17T04:54:12.381Z,83
2023-01-17T04:55:13.751Z,83
2023-01-17T04:56:15.221Z,82
2023-01-17T04:57:40.762Z,82
2023-01-17T04:58:42.148Z,82
2023-01-17T04:59:44.119Z,82
2023-01-17T05:00:46.537Z,82
2023-01-17T05:01:48.962Z,82
2023-01-17T05:02:50.449Z,82
2023-01-17T05:03:51.871Z,82
2023-01-17T05:04:54.068Z,82
2023-01-17T05:05:56.579Z,82
2023-01-17T05:06:58.020Z,82
2023-01-17T05:08:00.285Z,82
2023-01-17T05:09:02.956Z,82
2023-01-17T05:10:04.420Z,82
2023-01-17T05:11:05.803Z,83
2023-01-17T05:12:07.512Z,83
2023-01-17T05:13:09.932Z,83
2023-01-17T05:14:11.362Z,83
2023-01-17T05:15:12.850Z,83
2023-01-17T05:16:15.199Z,83
2023-01-17T05:17:16.644Z,83
2023-01-17T05:18:18.087Z,83
2023-01-17T05:19:21.189Z,83
2023-01-17T05:20:22.658Z,83
2023-01-17T05:21:24.044Z,83
2023-01-17T05:22:25.451Z,83
2023-01-17T05:23:27.853Z,83
2023-01-17T05:24:29.282Z,83
2023-01-17T05:25:32.190Z,83
2023-01-17T05:26:50.351Z,83
2023-01-17T05:27:51.810Z,83
2023-01-17T05:28:54.484Z,83
2023-01-17T05:29:56.111Z,83
2023-01-17T05:30:58.452Z,83
2023-01-17T05:32:00.771Z,83
2023-01-17T05:33:02.222Z,83
2023-01-17T05:34:04.619Z,83
2023-01-17T05:35:07.066Z,83
2023-01-17T05:36:08.581Z,83
2023-01-17T05:37:10.011Z,83
2023-01-17T05:38:12.459Z,83
2023-01-17T05:39:13.824Z,83
2023-01-17T05:40:16.150Z,83
2023-01-17T05:41:17.630Z,83
2023-01-17T05:42:19.003Z,83
2023-01-17T05:43:22.219Z,83
2023-01-17T05:44:23.710Z,83
2023-01-17T05:46:02.080Z,84
2023-01-17T05:47:04.471Z,84
2023-01-17T05:48:06.784Z,84
2023-01-17T05:49:08.210Z,84
2023-01-17T05:50:10.484Z,84
2023-01-17T05:51:50.669Z,84
2023-01-17T05:52:52.134Z,84
2023-01-17T05:53:53.560Z,84
2023-01-17T05:54:54.973Z,84
2023-01-17T05:55:57.202Z,84
2023-01-17T05:56:59.710Z,84
2023-01-17T05:58:01.481Z,85
2023-01-17T05:59:03.925Z,85
2023-01-17T06:00:05.362Z,85
2023-01-17T06:01:07.752Z,85
2023-01-17T06:02:09.171Z,85
2023-01-17T06:03:11.877Z,85
2023-01-17T06:04:21.382Z,85
2023-01-17T06:05:22.773Z,85
2023-01-17T06:06:24.164Z,85
2023-01-17T06:07:25.574Z,85
2023-01-17T06:08:27.059Z,85
2023-01-17T06:09:28.434Z,86
2023-01-17T06:10:29.849Z,86
2023-01-17T06:11:31.276Z,86
2023-01-17T06:12:32.764Z,86
2023-01-17T06:13:34.320Z,86
2023-01-17T06:14:35.682Z,86
2023-01-17T06:15:37.295Z,86
2023-01-17T06:16:38.833Z,86
2023-01-17T06:17:40.523Z,86
2023-01-17T06:18:42.015Z,86
2023-01-17T06:19:43.430Z,86
2023-01-17T06:20:44.864Z,86
2023-01-17T06:21:46.309Z,86
2023-01-17T06:22:47.641Z,86
2023-01-17T06:23:49.045Z,86
2023-01-17T06:24:50.404Z,86
2023-01-17T06:25:51.821Z,86
2023-01-17T06:26:53.244Z,86
2023-01-17T06:27:55.844Z,87
2023-01-17T06:28:58.175Z,87
2023-01-17T06:30:00.590Z,86
2023-01-17T06:31:02.873Z,86
2023-01-17T06:32:04.302Z,86
2023-01-17T06:33:05.678Z,87
2023-01-17T06:34:21.271Z,87
2023-01-17T06:35:22.678Z,87
2023-01-17T06:37:40.669Z,87
2023-01-17T06:45:11.480Z,87
2023-01-17T06:51:01.972Z,87
2023-01-17T06:52:41.491Z,87
2023-01-17T06:55:10.348Z,87
2023-01-17T06:56:11.772Z,87
2023-01-17T06:57:13.165Z,87
2023-01-17T06:58:14.576Z,87
2023-01-17T06:59:15.989Z,87
2023-01-17T07:00:17.421Z,87
2023-01-17T07:01:51.058Z,87
2023-01-17T07:13:30.700Z,87
2023-01-17T07:16:50.655Z,87
2023-01-17T07:18:30.654Z,87
2023-01-17T07:21:50.938Z,87
2023-01-17T07:28:30.692Z,86
2023-01-17T07:29:32.109Z,86
2023-01-17T07:30:33.531Z,86
2023-01-17T07:31:35.026Z,86
2023-01-17T07:32:36.412Z,86
2023-01-17T07:33:37.913Z,86
2023-01-17T07:34:39.336Z,86
2023-01-17T07:35:40.772Z,86
2023-01-17T07:36:50.335Z,86
2023-01-17T07:37:51.712Z,86
2023-01-17T07:38:53.169Z,86
2023-01-17T07:39:54.616Z,86
2023-01-17T07:48:30.955Z,86
2023-01-17T07:51:00.949Z,86
2023-01-17T07:59:20.524Z,85
2023-01-17T08:00:21.947Z,85
2023-01-17T08:01:50.301Z,85
2023-01-17T08:02:51.811Z,85
2023-01-17T08:03:53.241Z,85
2023-01-17T08:04:54.642Z,85
2023-01-17T08:05:56.039Z,85
2023-01-17T08:06:57.417Z,85
2023-01-17T08:07:58.803Z,85
2023-01-17T08:10:10.128Z,85
2023-01-17T08:11:11.541Z,85
2023-01-17T08:12:12.962Z,85
2023-01-17T08:13:14.316Z,85
2023-01-17T08:14:15.690Z,85
2023-01-17T08:15:17.201Z,85
2023-01-17T08:16:18.682Z,85
2023-01-17T08:17:20.069Z,85
2023-01-17T08:18:21.480Z,85
2023-01-17T08:19:22.875Z,85
2023-01-17T08:20:26.757Z,85
2023-01-17T08:21:28.999Z,85
2023-01-17T08:22:30.350Z,85
2023-01-17T08:23:31.708Z,85
2023-01-17T08:24:33.083Z,85
2023-01-17T08:25:34.514Z,85
2023-01-17T08:26:35.890Z,85
2023-01-17T08:27:37.250Z,84
2023-01-17T08:28:38.741Z,84
2023-01-17T08:29:40.111Z,84
2023-01-17T08:30:41.460Z,84
2023-01-17T08:31:42.865Z,84
2023-01-17T08:32:44.245Z,84
2023-01-17T08:33:45.620Z,84
2023-01-17T08:34:47.012Z,84
2023-01-17T08:35:48.380Z,84
2023-01-17T08:36:50.292Z,84
2023-01-17T08:37:51.686Z,84
2023-01-17T08:38:53.035Z,84
2023-01-17T08:39:54.390Z,84
2023-01-17T08:41:00.474Z,84
2023-01-17T08:42:01.865Z,84
2023-01-17T08:43:03.258Z,84
2023-01-17T08:44:04.603Z,84
2023-01-17T08:45:05.953Z,84
2023-01-17T08:46:07.344Z,84
2023-01-17T08:47:08.750Z,84
2023-01-17T08:48:10.098Z,84
2023-01-17T08:49:20.284Z,84
2023-01-17T08:50:21.652Z,84
2023-01-17T08:51:23.034Z,83
2023-01-17T08:52:24.383Z,83
2023-01-17T08:53:30.325Z,83
2023-01-17T08:54:31.656Z,83
2023-01-17T08:55:33.055Z,83
2023-01-17T08:56:34.407Z,83
2023-01-17T08:57:35.769Z,83
2023-01-17T08:58:37.127Z,83
2023-01-17T08:59:38.468Z,83
2023-01-17T09:01:00.263Z,83
2023-01-17T09:02:01.783Z,83
2023-01-17T09:03:30.358Z,82
2023-01-17T09:04:31.871Z,82
2023-01-17T09:05:33.317Z,82
2023-01-17T09:06:50.250Z,82
2023-01-17T09:07:51.653Z,82
2023-01-17T09:08:53.089Z,82
2023-01-17T09:09:54.572Z,82
2023-01-17T09:10:55.977Z,82
2023-01-17T09:11:57.365Z,82
2023-01-17T09:12:58.770Z,81
2023-01-17T09:14:00.188Z,81
2023-01-17T09:15:01.651Z,81
2023-01-17T09:16:03.152Z,81
2023-01-17T09:17:04.586Z,80
2023-01-17T09:18:05.993Z,80
2023-01-17T09:19:07.380Z,80
2023-01-17T09:20:08.791Z,80
2023-01-17T09:21:10.160Z,80
2023-01-17T09:22:11.561Z,80
2023-01-17T09:23:12.953Z,80
2023-01-17T09:24:14.373Z,80
2023-01-17T09:25:15.871Z,80
2023-01-17T09:26:17.271Z,79
2023-01-17T09:27:18.681Z,79
2023-01-17T09:28:20.139Z,79
2023-01-17T09:29:21.560Z,79
2023-01-17T09:30:23.022Z,79
2023-01-17T09:31:50.252Z,79
2023-01-17T09:32:51.660Z,78
2023-01-17T09:33:53.080Z,78
2023-01-17T09:34:54.460Z,78
2023-01-17T09:35:55.923Z,78
2023-01-17T09:36:57.325Z,78
2023-01-17T09:37:58.725Z,78
2023-01-17T09:39:00.117Z,77
2023-01-17T09:40:01.531Z,77
2023-01-17T09:41:02.899Z,77
2023-01-17T09:43:30.651Z,77
2023-01-17T09:44:32.127Z,77
2023-01-17T09:45:33.602Z,77
2023-01-17T09:46:35.061Z,77
2023-01-17T09:47:40.199Z,77
2023-01-17T09:48:41.631Z,77
2023-01-17T09:49:43.066Z,77
2023-01-17T09:50:44.540Z,77
2023-01-17T09:51:45.971Z,76
2023-01-17T09:52:47.431Z,76
2023-01-17T09:53:48.884Z,76
2023-01-17T09:54:50.359Z,76
2023-01-17T09:55:51.772Z,76
2023-01-17T09:56:53.195Z,76
2023-01-17T09:57:54.571Z,75
2023-01-17T09:58:55.982Z,75
2023-01-17T10:00:03.101Z,75
2023-01-17T10:01:05.327Z,76
2023-01-17T10:02:06.915Z,76
2023-01-17T10:03:08.611Z,76
2023-01-17T10:05:12.248Z,75
2023-01-17T10:06:14.960Z,75
2023-01-17T10:07:17.459Z,75
2023-01-17T10:08:19.739Z,75
2023-01-17T10:09:21.153Z,75
2023-01-17T10:10:22.575Z,75
2023-01-17T10:11:24.008Z,75
2023-01-17T10:12:25.455Z,74
2023-01-17T10:13:26.926Z,74
2023-01-17T10:14:28.322Z,74
2023-01-17T10:18:30.675Z,74
2023-01-17T10:19:32.157Z,73
2023-01-17T10:20:33.677Z,73
2023-01-17T10:21:35.104Z,73
2023-01-17T10:37:40.937Z,70
2023-01-17T10:45:10.691Z,69
2023-01-17T10:46:12.183Z,68
2023-01-17T10:47:13.613Z,68
2023-01-17T10:48:15.014Z,68
2023-01-17T10:49:16.620Z,68
2023-01-17T10:50:18.200Z,68
2023-01-17T10:51:19.628Z,68
2023-01-17T10:52:21.024Z,68
2023-01-17T10:53:22.507Z,68
2023-01-17T10:54:24.130Z,68
2023-01-17T10:55:25.721Z,68
2023-01-17T10:56:27.157Z,68
2023-01-17T10:57:28.966Z,68
2023-01-17T10:58:30.389Z,68
2023-01-17T10:59:31.817Z,68
2023-01-17T11:00:33.318Z,68
2023-01-17T11:01:34.812Z,67
2023-01-17T11:02:36.270Z,67
2023-01-17T11:03:37.698Z,67
2023-01-17T11:04:39.115Z,67
2023-01-17T11:05:40.580Z,66
2023-01-17T11:06:57.172Z,66
2023-01-17T11:07:58.980Z,66
2023-01-17T11:09:00.390Z,66
2023-01-17T11:10:01.797Z,66
2023-01-17T11:11:03.214Z,66
2023-01-17T11:12:04.604Z,66
2023-01-17T11:13:06.053Z,66
2023-01-17T11:14:07.428Z,66
2023-01-17T11:15:08.848Z,66
2023-01-17T11:16:10.359Z,66
2023-01-17T11:17:11.743Z,66
2023-01-17T11:18:13.121Z,66
2023-01-17T11:19:14.553Z,67
2023-01-17T11:20:15.946Z,67
2023-01-17T11:21:17.335Z,67
2023-01-17T11:22:18.727Z,67
2023-01-17T11:23:20.132Z,67
2023-01-17T11:24:21.527Z,67
2023-01-17T11:25:22.907Z,67
2023-01-17T11:26:24.309Z,67
2023-01-17T11:27:25.660Z,67
2023-01-17T11:28:27.139Z,66
2023-01-17T11:29:28.541Z,66
2023-01-17T11:30:29.939Z,67
2023-01-17T11:31:31.366Z,67
2023-01-17T11:32:32.758Z,67
2023-01-17T11:33:34.156Z,67
2023-01-17T11:35:10.308Z,67
2023-01-17T11:36:11.741Z,67
2023-01-17T11:37:13.159Z,67
2023-01-17T11:38:14.557Z,67
2023-01-17T11:39:15.946Z,66
2023-01-17T11:40:17.385Z,66
2023-01-17T11:41:18.878Z,66
2023-01-17T11:42:20.380Z,66
2023-01-17T11:43:21.752Z,67
2023-01-17T11:44:23.143Z,67
2023-01-17T11:45:24.531Z,66
2023-01-17T11:46:26.007Z,67
2023-01-17T11:47:27.445Z,67
2023-01-17T11:48:28.891Z,67
2023-01-17T11:49:30.331Z,67
2023-01-17T11:50:31.760Z,67
2023-01-17T11:51:33.156Z,67
2023-01-17T11:52:34.568Z,67
2023-01-17T11:53:35.974Z,67
2023-01-17T11:54:37.340Z,67
2023-01-17T11:55:38.753Z,67
2023-01-17T11:56:40.123Z,67
2023-01-17T11:57:41.508Z,67
2023-01-17T11:58:42.889Z,67
2023-01-17T11:59:44.254Z,66
2023-01-17T12:00:45.706Z,66
2023-01-17T12:01:47.076Z,66
2023-01-17T12:02:48.482Z,66
2023-01-17T12:03:49.899Z,65
2023-01-17T12:04:51.320Z,65
2023-01-17T12:05:52.711Z,65
2023-01-17T12:06:57.827Z,65
2023-01-17T12:07:59.449Z,65
2023-01-17T12:09:00.854Z,65
2023-01-17T12:10:02.343Z,65
2023-01-17T12:11:03.917Z,65
2023-01-17T12:12:05.375Z,65
2023-01-17T12:13:06.848Z,66
2023-01-17T12:14:20.287Z,66
2023-01-17T12:15:21.651Z,66
2023-01-17T12:16:23.056Z,66
2023-01-17T12:17:40.138Z,66
2023-01-17T12:18:41.538Z,65
2023-01-17T12:19:43.002Z,65
2023-01-17T12:20:44.429Z,65
2023-01-17T12:21:45.808Z,65
2023-01-17T12:22:48.654Z,65
2023-01-17T12:23:50.061Z,65
2023-01-17T12:24:51.502Z,66
2023-01-17T12:25:52.920Z,66
2023-01-17T12:26:54.351Z,66
2023-01-17T12:27:55.777Z,66
2023-01-17T12:28:57.210Z,66
2023-01-17T12:29:58.638Z,66
2023-01-17T12:31:00.776Z,66
2023-01-17T12:32:02.151Z,66
2023-01-17T12:33:03.671Z,66
2023-01-17T12:34:20.137Z,66
2023-01-17T12:35:21.562Z,66
2023-01-17T12:36:50.179Z,66
2023-01-17T12:38:03.912Z,66
2023-01-17T12:39:06.903Z,66
2023-01-17T12:40:08.334Z,66
2023-01-17T12:41:09.771Z,66
2023-01-17T12:42:11.279Z,66
2023-01-17T12:43:12.657Z,66
2023-01-17T12:44:14.058Z,65
2023-01-17T12:45:15.629Z,65
2023-01-17T12:46:17.174Z,65
2023-01-17T12:47:18.707Z,65
2023-01-17T12:48:20.105Z,65
2023-01-17T12:49:21.531Z,65
2023-01-17T12:50:22.958Z,65
2023-01-17T12:51:24.385Z,65
2023-01-17T12:52:25.858Z,65
2023-01-17T12:53:30.191Z,65
2023-01-17T12:54:31.599Z,65
2023-01-17T12:55:33.001Z,64
2023-01-17T12:56:34.439Z,64
2023-01-17T12:57:35.923Z,64
2023-01-17T12:58:37.351Z,64
2023-01-17T12:59:38.758Z,64
2023-01-17T13:00:40.203Z,64
2023-01-17T13:01:41.737Z,64
2023-01-17T13:02:43.210Z,64
2023-01-17T13:04:20.352Z,64
2023-01-17T13:05:21.813Z,64
2023-01-17T13:06:23.230Z,64
2023-01-17T13:07:24.630Z,64
2023-01-17T13:08:30.732Z,65
2023-01-17T13:09:32.181Z,65
2023-01-17T13:11:00.302Z,65
2023-01-17T13:12:01.711Z,65
2023-01-17T13:13:03.187Z,65
2023-01-17T13:14:04.641Z,66
2023-01-17T13:15:06.015Z,66
2023-01-17T13:16:07.465Z,66
2023-01-17T13:17:08.855Z,66
2023-01-17T13:18:10.543Z,66
2023-01-17T13:19:20.112Z,67
2023-01-17T13:21:00.963Z,67
2023-01-17T13:22:02.371Z,67
2023-01-17T13:23:03.770Z,67
2023-01-17T13:24:05.188Z,67
2023-01-17T13:25:06.643Z,67
2023-01-17T13:26:08.034Z,67
2023-01-17T13:27:40.364Z,68
2023-01-17T13:28:41.796Z,68
2023-01-17T13:29:43.205Z,68
2023-01-17T13:30:44.594Z,68
2023-01-17T13:31:45.953Z,68
2023-01-17T13:32:47.389Z,68
2023-01-17T13:34:20.174Z,68
2023-01-17T13:35:21.561Z,68
2023-01-17T13:36:22.963Z,68
2023-01-17T13:37:24.423Z,68
2023-01-17T13:38:25.789Z,68
2023-01-17T13:39:27.184Z,68
2023-01-17T13:40:29.607Z,68
2023-01-17T13:41:31.137Z,68
2023-01-17T13:42:32.538Z,68
2023-01-17T13:43:33.900Z,68
2023-01-17T13:44:35.288Z,68
2023-01-17T13:46:00.562Z,68
2023-01-17T13:47:01.994Z,68
2023-01-17T13:48:03.315Z,68
2023-01-17T13:49:04.727Z,68
2023-01-17T13:50:10.481Z,68
2023-01-17T13:51:11.887Z,68
2023-01-17T13:52:13.250Z,68
2023-01-17T13:53:14.647Z,68
2023-01-17T13:54:20.276Z,68
2023-01-17T13:55:21.600Z,69
2023-01-17T13:56:22.978Z,68
2023-01-17T13:57:24.351Z,69
2023-01-17T13:58:25.712Z,69
2023-01-17T13:59:27.070Z,69
2023-01-17T14:00:28.482Z,69
2023-01-17T14:01:29.978Z,69
2023-01-17T14:02:31.518Z,69
2023-01-17T14:03:33.018Z,69
2023-01-17T14:04:34.394Z,69
2023-01-17T14:05:35.809Z,69
2023-01-17T14:06:37.230Z,69
2023-01-17T14:07:38.661Z,69
2023-01-17T14:08:40.116Z,70
2023-01-17T14:09:41.488Z,70
2023-01-17T14:11:00.133Z,70
2023-01-17T14:12:01.559Z,70
2023-01-17T14:13:30.505Z,70
2023-01-17T14:15:10.669Z,70
2023-01-17T14:16:12.097Z,70
2023-01-17T14:17:40.843Z,70
2023-01-17T14:20:10.191Z,70
2023-01-17T14:21:11.611Z,70
2023-01-17T14:22:13.028Z,70
2023-01-17T14:23:14.460Z,70
2023-01-17T14:24:15.898Z,70
2023-01-17T14:25:17.400Z,70
2023-01-17T14:26:18.830Z,70
2023-01-17T14:27:40.692Z,70
2023-01-17T14:28:42.112Z,70
2023-01-17T14:30:10.330Z,71
2023-01-17T14:31:11.792Z,71
2023-01-17T14:32:40.194Z,71
2023-01-17T14:34:20.121Z,71
2023-01-17T14:35:21.678Z,71
2023-01-17T14:36:23.086Z,71
2023-01-17T14:37:24.514Z,71
2023-01-17T14:38:25.891Z,71
2023-01-17T14:39:27.299Z,71
2023-01-17T14:40:28.669Z,71
2023-01-17T14:41:30.149Z,71
2023-01-17T14:42:40.141Z,71
2023-01-17T14:43:41.688Z,71
2023-01-17T14:44:43.130Z,71
2023-01-17T14:45:44.579Z,71
2023-01-17T14:46:46.017Z,71
2023-01-17T14:47:47.464Z,71
2023-01-17T14:48:48.921Z,71
2023-01-17T14:50:10.218Z,72
2023-01-17T14:51:11.721Z,72
2023-01-17T14:52:13.112Z,72
2023-01-17T14:53:14.489Z,72
2023-01-17T14:54:15.891Z,72
2023-01-17T14:55:17.300Z,72
2023-01-17T14:56:50.569Z,72
2023-01-17T14:57:52.025Z,72
2023-01-17T14:58:53.453Z,72
2023-01-17T14:59:54.785Z,72
2023-01-17T15:00:56.295Z,72
2023-01-17T15:02:07.003Z,72
2023-01-17T15:03:09.093Z,73
2023-01-17T15:04:10.505Z,73
2023-01-17T15:05:11.921Z,73
2023-01-17T15:06:13.301Z,73
2023-01-17T15:07:14.697Z,73
2023-01-17T15:08:16.169Z,73
2023-01-17T15:09:17.608Z,73
2023-01-17T15:10:19.023Z,73
2023-01-17T15:11:20.434Z,73
2023-01-17T15:12:21.835Z,73
2023-01-17T15:13:29.872Z,73
2023-01-17T15:14:36.850Z,74
2023-01-17T15:15:38.589Z,74
2023-01-17T15:16:40.985Z,74
2023-01-17T15:17:42.502Z,74
2023-01-17T15:18:44.981Z,74
2023-01-17T15:19:47.219Z,74
2023-01-17T15:20:48.624Z,74
2023-01-17T15:21:50.332Z,74
2023-01-17T15:23:30.204Z,75
2023-01-17T15:24:31.621Z,75
2023-01-17T15:25:33.025Z,75
2023-01-17T15:26:34.418Z,75
2023-01-17T15:27:35.772Z,75
2023-01-17T15:28:37.180Z,75
2023-01-17T15:29:39.597Z,76
2023-01-17T15:30:41.010Z,76
2023-01-17T15:31:50.320Z,76
2023-01-17T15:32:51.781Z,76
2023-01-17T15:33:53.244Z,76
2023-01-17T15:34:54.699Z,76
2023-01-17T15:35:56.109Z,76
2023-01-17T15:36:57.540Z,77
2023-01-17T15:37:59.033Z,77
2023-01-17T15:39:20.265Z,77
2023-01-17T15:40:21.632Z,77
2023-01-17T15:41:23.053Z,77
2023-01-17T15:42:24.461Z,77
2023-01-17T15:43:25.850Z,77
2023-01-17T15:44:33.357Z,77
2023-01-17T15:45:37.552Z,77
2023-01-17T15:46:38.932Z,77
2023-01-17T15:47:40.368Z,77
2023-01-17T15:48:41.801Z,78
2023-01-17T15:50:10.163Z,78
2023-01-17T15:51:50.109Z,78
2023-01-17T15:53:30.462Z,78
2023-01-17T15:54:31.872Z,78
2023-01-17T15:55:33.253Z,78
2023-01-17T15:56:34.582Z,78
2023-01-17T15:57:36.974Z,79
2023-01-17T15:58:38.575Z,79
2023-01-17T15:59:40.121Z,79
2023-01-17T16:00:41.501Z,79
2023-01-17T16:01:42.999Z,79
2023-01-17T16:02:44.461Z,79
2023-01-17T16:03:45.871Z,79
2023-01-17T16:04:47.256Z,79
2023-01-17T16:05:48.616Z,80
2023-01-17T16:06:50.113Z,80
2023-01-17T16:07:51.500Z,80
2023-01-17T16:08:52.881Z,80
2023-01-17T16:09:54.258Z,80
2023-01-17T16:10:55.649Z,80
2023-01-17T16:11:57.027Z,80
2023-01-17T16:12:58.369Z,80
2023-01-17T16:13:59.755Z,80
2023-01-17T16:15:12.178Z,80
2023-01-17T16:16:13.975Z,80
2023-01-17T16:17:16.579Z,80
2023-01-17T16:18:17.952Z,80
2023-01-17T16:19:20.261Z,81
2023-01-17T16:21:50.314Z,81
2023-01-17T16:23:30.871Z,82
2023-01-17T16:24:32.246Z,82
2023-01-17T16:25:33.566Z,82
2023-01-17T16:26:34.909Z,82
2023-01-17T16:27:36.274Z,82
2023-01-17T16:28:37.675Z,82